sensor_id;sensor_type;location;lat;lon;timestamp;pressure;altitude;pressure_sealevel;temperature;humidity
16190;BME280;41754;51.498;7.540;2023-05-01T00:01:50;100517.91;;;10.44;57.27
16190;BME280;41754;51.498;7.540;2023-05-01T00:04:17;100515.47;;;10.57;57.07
16190;BME280;41754;51.498;7.540;2023-05-01T00:06:47;100510.31;;;10.22;58.12
16190;BME280;41754;51.498;7.540;2023-05-01T00:09:15;100506.78;;;10.36;57.22
16190;BME280;41754;51.498;7.540;2023-05-01T00:11:45;100512.78;;;10.24;58.26
16190;BME280;41754;51.498;7.540;2023-05-01T00:14:13;100511.97;;;10.23;58.28
16190;BME280;41754;51.498;7.540;2023-05-01T00:16:41;100503.66;;;10.10;58.70
16190;BME280;41754;51.498;7.540;2023-05-01T00:19:09;100493.47;;;10.10;58.85
16190;BME280;41754;51.498;7.540;2023-05-01T00:21:38;100493.75;;;9.95;59.13
16190;BME280;41754;51.498;7.540;2023-05-01T00:24:06;100495.28;;;10.01;59.25
16190;BME280;41754;51.498;7.540;2023-05-01T00:26:34;100487.13;;;9.96;59.13
16190;BME280;41754;51.498;7.540;2023-05-01T00:29:03;100485.81;;;9.93;58.85
16190;BME280;41754;51.498;7.540;2023-05-01T00:31:31;100485.59;;;9.90;59.36
16190;BME280;41754;51.498;7.540;2023-05-01T00:33:59;100483.72;;;9.72;60.25
16190;BME280;41754;51.498;7.540;2023-05-01T00:36:27;100477.22;;;9.49;61.17
16190;BME280;41754;51.498;7.540;2023-05-01T00:38:55;100471.66;;;9.54;61.22
16190;BME280;41754;51.498;7.540;2023-05-01T00:41:23;100467.47;;;9.89;59.49
16190;BME280;41754;51.498;7.540;2023-05-01T00:43:51;100468.91;;;10.00;59.14
16190;BME280;41754;51.498;7.540;2023-05-01T00:46:20;100455.94;;;10.19;58.17
16190;BME280;41754;51.498;7.540;2023-05-01T00:48:48;100454.13;;;10.29;57.39
16190;BME280;41754;51.498;7.540;2023-05-01T00:51:17;100451.91;;;10.12;57.78
16190;BME280;41754;51.498;7.540;2023-05-01T00:53:46;100450.84;;;9.67;58.52
16190;BME280;41754;51.498;7.540;2023-05-01T00:56:15;100452.31;;;9.08;61.17
16190;BME280;41754;51.498;7.540;2023-05-01T00:58:44;100449.72;;;8.97;62.48
16190;BME280;41754;51.498;7.540;2023-05-01T01:01:13;100447.47;;;8.99;62.56
16190;BME280;41754;51.498;7.540;2023-05-01T01:03:44;100446.41;;;8.76;63.07
16190;BME280;41754;51.498;7.540;2023-05-01T01:06:14;100439.81;;;9.34;61.28
16190;BME280;41754;51.498;7.540;2023-05-01T01:08:52;100431.25;;;9.54;60.02
16190;BME280;41754;51.498;7.540;2023-05-01T01:11:31;100431.97;;;9.60;60.13
16190;BME280;41754;51.498;7.540;2023-05-01T01:14:07;100425.91;;;9.77;59.48
16190;BME280;41754;51.498;7.540;2023-05-01T01:16:40;100427.13;;;9.71;59.45
16190;BME280;41754;51.498;7.540;2023-05-01T01:19:32;100422.25;;;9.68;59.18
16190;BME280;41754;51.498;7.540;2023-05-01T01:22:07;100417.91;;;9.48;59.91
16190;BME280;41754;51.498;7.540;2023-05-01T01:28:01;100414.84;;;9.49;59.63
16190;BME280;41754;51.498;7.540;2023-05-01T01:33:48;100415.16;;;9.94;57.92
16190;BME280;41754;51.498;7.540;2023-05-01T01:36:21;100407.00;;;9.89;57.25
16190;BME280;41754;51.498;7.540;2023-05-01T01:38:57;100404.81;;;9.26;59.54
16190;BME280;41754;51.498;7.540;2023-05-01T01:41:30;100406.38;;;9.13;60.05
16190;BME280;41754;51.498;7.540;2023-05-01T01:44:03;100400.59;;;9.47;59.27
16190;BME280;41754;51.498;7.540;2023-05-01T01:46:36;100392.34;;;9.80;57.56
16190;BME280;41754;51.498;7.540;2023-05-01T01:49:10;100391.06;;;9.58;57.31
16190;BME280;41754;51.498;7.540;2023-05-01T01:51:41;100388.00;;;9.46;57.72
16190;BME280;41754;51.498;7.540;2023-05-01T01:54:10;100388.66;;;9.38;58.73
16190;BME280;41754;51.498;7.540;2023-05-01T01:56:41;100378.78;;;9.70;57.36
16190;BME280;41754;51.498;7.540;2023-05-01T01:59:10;100382.72;;;9.63;57.43
16190;BME280;41754;51.498;7.540;2023-05-01T02:01:39;100379.06;;;9.54;57.68
16190;BME280;41754;51.498;7.540;2023-05-01T02:04:10;100364.47;;;9.40;57.97
16190;BME280;41754;51.498;7.540;2023-05-01T02:06:39;100379.00;;;9.08;59.55
16190;BME280;41754;51.498;7.540;2023-05-01T02:09:08;100367.75;;;9.10;59.55
16190;BME280;41754;51.498;7.540;2023-05-01T02:11:38;100372.34;;;8.95;60.34
16190;BME280;41754;51.498;7.540;2023-05-01T02:14:07;100366.19;;;9.03;60.37
16190;BME280;41754;51.498;7.540;2023-05-01T02:16:37;100365.84;;;8.91;60.17
16190;BME280;41754;51.498;7.540;2023-05-01T02:19:06;100365.72;;;8.77;61.55
16190;BME280;41754;51.498;7.540;2023-05-01T02:21:38;100358.53;;;9.00;61.43
16190;BME280;41754;51.498;7.540;2023-05-01T02:24:06;100356.09;;;9.18;60.41
16190;BME280;41754;51.498;7.540;2023-05-01T02:26:40;100359.66;;;9.18;60.16
16190;BME280;41754;51.498;7.540;2023-05-01T02:29:09;100349.88;;;8.93;60.88
16190;BME280;41754;51.498;7.540;2023-05-01T02:31:37;100349.94;;;8.88;61.16
16190;BME280;41754;51.498;7.540;2023-05-01T02:34:05;100348.16;;;8.97;60.82
16190;BME280;41754;51.498;7.540;2023-05-01T02:36:34;100340.22;;;8.77;60.46
16190;BME280;41754;51.498;7.540;2023-05-01T02:39:05;100342.97;;;8.58;61.66
16190;BME280;41754;51.498;7.540;2023-05-01T02:41:34;100343.75;;;8.40;62.77
16190;BME280;41754;51.498;7.540;2023-05-01T02:44:04;100337.69;;;8.62;61.98
16190;BME280;41754;51.498;7.540;2023-05-01T02:46:35;100337.63;;;8.29;63.10
16190;BME280;41754;51.498;7.540;2023-05-01T02:49:05;100336.22;;;8.51;62.95
16190;BME280;41754;51.498;7.540;2023-05-01T02:51:34;100325.84;;;8.29;62.70
16190;BME280;41754;51.498;7.540;2023-05-01T02:54:06;100326.50;;;8.39;63.70
16190;BME280;41754;51.498;7.540;2023-05-01T02:56:34;100328.34;;;8.63;62.73
16190;BME280;41754;51.498;7.540;2023-05-01T02:59:02;100322.06;;;8.62;62.42
16190;BME280;41754;51.498;7.540;2023-05-01T03:01:30;100317.03;;;8.69;62.16
16190;BME280;41754;51.498;7.540;2023-05-01T03:03:59;100316.00;;;8.46;62.81
16190;BME280;41754;51.498;7.540;2023-05-01T03:06:27;100316.00;;;8.46;62.62
16190;BME280;41754;51.498;7.540;2023-05-01T03:08:56;100314.97;;;8.42;62.97
16190;BME280;41754;51.498;7.540;2023-05-01T03:11:26;100312.28;;;8.37;63.25
16190;BME280;41754;51.498;7.540;2023-05-01T03:13:54;100302.06;;;8.43;62.79
16190;BME280;41754;51.498;7.540;2023-05-01T03:16:22;100311.19;;;8.57;62.30
16190;BME280;41754;51.498;7.540;2023-05-01T03:18:50;100303.59;;;8.49;62.97
16190;BME280;41754;51.498;7.540;2023-05-01T03:21:18;100295.31;;;8.35;62.92
16190;BME280;41754;51.498;7.540;2023-05-01T03:23:46;100295.63;;;8.34;63.34
16190;BME280;41754;51.498;7.540;2023-05-01T03:26:14;100291.66;;;8.96;61.75
16190;BME280;41754;51.498;7.540;2023-05-01T03:28:43;100281.69;;;9.47;59.78
16190;BME280;41754;51.498;7.540;2023-05-01T03:31:12;100286.31;;;9.65;59.03
16190;BME280;41754;51.498;7.540;2023-05-01T03:33:40;100285.44;;;9.37;59.18
16190;BME280;41754;51.498;7.540;2023-05-01T03:36:08;100278.28;;;9.09;61.15
16190;BME280;41754;51.498;7.540;2023-05-01T03:38:36;100281.56;;;9.24;60.73
16190;BME280;41754;51.498;7.540;2023-05-01T03:41:07;100275.50;;;9.41;60.34
16190;BME280;41754;51.498;7.540;2023-05-01T03:43:55;100276.38;;;9.37;59.95
16190;BME280;41754;51.498;7.540;2023-05-01T03:46:33;100265.72;;;9.49;59.96
16190;BME280;41754;51.498;7.540;2023-05-01T03:49:02;100270.19;;;9.31;60.27
16190;BME280;41754;51.498;7.540;2023-05-01T03:51:34;100260.44;;;9.66;59.49
16190;BME280;41754;51.498;7.540;2023-05-01T03:54:02;100264.41;;;9.46;59.52
16190;BME280;41754;51.498;7.540;2023-05-01T03:56:40;100259.53;;;9.43;59.55
16190;BME280;41754;51.498;7.540;2023-05-01T03:59:10;100256.13;;;9.19;60.29
16190;BME280;41754;51.498;7.540;2023-05-01T04:01:38;100268.88;;;9.42;59.57
16190;BME280;41754;51.498;7.540;2023-05-01T04:04:06;100259.72;;;9.60;59.31
16190;BME280;41754;51.498;7.540;2023-05-01T04:06:36;100252.59;;;9.59;59.58
16190;BME280;41754;51.498;7.540;2023-05-01T04:09:05;100255.16;;;9.42;59.72
16190;BME280;41754;51.498;7.540;2023-05-01T04:11:33;100256.34;;;9.36;59.76
16190;BME280;41754;51.498;7.540;2023-05-01T04:14:01;100254.91;;;9.39;59.96
16190;BME280;41754;51.498;7.540;2023-05-01T04:16:31;100255.75;;;9.39;60.20
16190;BME280;41754;51.498;7.540;2023-05-01T04:19:00;100249.25;;;9.90;58.64
16190;BME280;41754;51.498;7.540;2023-05-01T04:21:29;100248.13;;;9.91;58.57
16190;BME280;41754;51.498;7.540;2023-05-01T04:23:57;100244.34;;;9.87;58.49
16190;BME280;41754;51.498;7.540;2023-05-01T04:26:26;100246.66;;;10.07;57.71
16190;BME280;41754;51.498;7.540;2023-05-01T04:28:54;100243.63;;;9.95;58.09
16190;BME280;41754;51.498;7.540;2023-05-01T04:31:24;100249.03;;;9.86;58.46
16190;BME280;41754;51.498;7.540;2023-05-01T04:33:54;100246.19;;;9.64;59.40
16190;BME280;41754;51.498;7.540;2023-05-01T04:36:22;100241.72;;;9.68;59.82
16190;BME280;41754;51.498;7.540;2023-05-01T04:38:50;100238.66;;;9.70;59.95
16190;BME280;41754;51.498;7.540;2023-05-01T04:41:18;100232.41;;;10.05;59.16
16190;BME280;41754;51.498;7.540;2023-05-01T04:43:47;100230.38;;;9.97;58.49
16190;BME280;41754;51.498;7.540;2023-05-01T04:46:17;100233.13;;;9.97;59.01
16190;BME280;41754;51.498;7.540;2023-05-01T04:48:48;100237.63;;;9.93;59.44
16190;BME280;41754;51.498;7.540;2023-05-01T04:51:17;100232.50;;;10.00;59.36
16190;BME280;41754;51.498;7.540;2023-05-01T04:53:45;100232.94;;;9.93;59.90
16190;BME280;41754;51.498;7.540;2023-05-01T04:56:20;100234.53;;;10.22;59.04
16190;BME280;41754;51.498;7.540;2023-05-01T04:58:52;100237.59;;;10.20;59.33
16190;BME280;41754;51.498;7.540;2023-05-01T05:01:23;100231.75;;;10.80;57.90
16190;BME280;41754;51.498;7.540;2023-05-01T05:03:51;100236.88;;;10.73;57.83
16190;BME280;41754;51.498;7.540;2023-05-01T05:06:21;100234.25;;;10.91;57.03
16190;BME280;41754;51.498;7.540;2023-05-01T05:08:49;100232.16;;;10.65;57.53
16190;BME280;41754;51.498;7.540;2023-05-01T05:11:17;100230.28;;;11.05;56.77
16190;BME280;41754;51.498;7.540;2023-05-01T05:14:02;100228.16;;;11.33;56.84
16190;BME280;41754;51.498;7.540;2023-05-01T05:16:30;100233.63;;;11.56;55.84
16190;BME280;41754;51.498;7.540;2023-05-01T05:18:58;100228.56;;;11.18;56.73
16190;BME280;41754;51.498;7.540;2023-05-01T05:21:31;100238.28;;;11.16;56.71
16190;BME280;41754;51.498;7.540;2023-05-01T05:24:01;100229.91;;;11.29;56.63
16190;BME280;41754;51.498;7.540;2023-05-01T05:26:29;100237.47;;;11.15;57.43
16190;BME280;41754;51.498;7.540;2023-05-01T05:29:00;100226.81;;;11.53;56.45
16190;BME280;41754;51.498;7.540;2023-05-01T05:31:28;100231.50;;;10.68;60.52
16190;BME280;41754;51.498;7.540;2023-05-01T05:33:57;100234.16;;;11.35;57.62
16190;BME280;41754;51.498;7.540;2023-05-01T05:36:25;100228.34;;;11.77;56.58
16190;BME280;41754;51.498;7.540;2023-05-01T05:38:56;100230.50;;;12.23;56.05
16190;BME280;41754;51.498;7.540;2023-05-01T05:41:24;100229.09;;;12.69;54.18
16190;BME280;41754;51.498;7.540;2023-05-01T05:43:56;100229.88;;;12.61;54.21
16190;BME280;41754;51.498;7.540;2023-05-01T05:46:26;100235.56;;;12.30;55.69
16190;BME280;41754;51.498;7.540;2023-05-01T05:48:54;100228.59;;;12.67;55.41
16190;BME280;41754;51.498;7.540;2023-05-01T05:51:22;100222.97;;;13.19;54.24
16190;BME280;41754;51.498;7.540;2023-05-01T05:53:51;100229.97;;;13.54;53.10
16190;BME280;41754;51.498;7.540;2023-05-01T05:56:21;100221.13;;;13.69;52.66
16190;BME280;41754;51.498;7.540;2023-05-01T05:58:50;100225.53;;;13.62;53.40
16190;BME280;41754;51.498;7.540;2023-05-01T06:01:18;100220.63;;;13.76;52.69
16190;BME280;41754;51.498;7.540;2023-05-01T06:03:46;100224.09;;;13.94;52.26
16190;BME280;41754;51.498;7.540;2023-05-01T06:06:15;100217.41;;;14.57;51.88
16190;BME280;41754;51.498;7.540;2023-05-01T06:08:43;100217.69;;;14.65;50.86
16190;BME280;41754;51.498;7.540;2023-05-01T06:11:12;100216.75;;;14.94;50.57
16190;BME280;41754;51.498;7.540;2023-05-01T06:13:41;100212.91;;;15.31;50.21
16190;BME280;41754;51.498;7.540;2023-05-01T06:16:09;100224.94;;;15.60;49.47
16190;BME280;41754;51.498;7.540;2023-05-01T06:18:37;100219.91;;;15.86;48.62
16190;BME280;41754;51.498;7.540;2023-05-01T06:21:06;100220.56;;;15.71;48.20
16190;BME280;41754;51.498;7.540;2023-05-01T06:23:34;100224.03;;;15.92;47.77
16190;BME280;41754;51.498;7.540;2023-05-01T06:26:34;100215.94;;;15.99;46.62
16190;BME280;41754;51.498;7.540;2023-05-01T06:29:03;100214.97;;;16.20;45.46
16190;BME280;41754;51.498;7.540;2023-05-01T06:31:32;100209.16;;;16.37;45.00
16190;BME280;41754;51.498;7.540;2023-05-01T06:34:01;100215.03;;;16.76;44.82
16190;BME280;41754;51.498;7.540;2023-05-01T06:36:42;100213.22;;;16.68;44.33
16190;BME280;41754;51.498;7.540;2023-05-01T06:39:11;100217.56;;;16.81;44.00
16190;BME280;41754;51.498;7.540;2023-05-01T06:41:39;100211.69;;;17.14;44.01
16190;BME280;41754;51.498;7.540;2023-05-01T06:44:08;100207.66;;;17.11;44.72
16190;BME280;41754;51.498;7.540;2023-05-01T06:46:37;100211.34;;;17.00;42.17
16190;BME280;41754;51.498;7.540;2023-05-01T06:49:05;100217.00;;;17.19;41.13
16190;BME280;41754;51.498;7.540;2023-05-01T06:51:34;100207.53;;;17.51;41.35
16190;BME280;41754;51.498;7.540;2023-05-01T06:54:02;100206.13;;;16.98;41.20
16190;BME280;41754;51.498;7.540;2023-05-01T06:56:31;100214.84;;;17.28;40.49
16190;BME280;41754;51.498;7.540;2023-05-01T06:58:59;100206.09;;;17.93;38.82
16190;BME280;41754;51.498;7.540;2023-05-01T07:01:29;100217.91;;;17.70;39.33
16190;BME280;41754;51.498;7.540;2023-05-01T07:04:01;100213.50;;;17.69;40.10
16190;BME280;41754;51.498;7.540;2023-05-01T07:06:29;100209.81;;;18.16;38.00
16190;BME280;41754;51.498;7.540;2023-05-01T07:08:58;100205.03;;;18.52;38.23
16190;BME280;41754;51.498;7.540;2023-05-01T07:11:26;100208.69;;;18.75;37.43
16190;BME280;41754;51.498;7.540;2023-05-01T07:13:54;100209.44;;;18.72;37.42
16190;BME280;41754;51.498;7.540;2023-05-01T07:16:22;100207.22;;;18.43;36.70
16190;BME280;41754;51.498;7.540;2023-05-01T07:18:52;100200.22;;;18.14;37.42
16190;BME280;41754;51.498;7.540;2023-05-01T07:21:20;100205.03;;;18.71;36.79
16190;BME280;41754;51.498;7.540;2023-05-01T07:23:48;100203.88;;;18.72;35.97
16190;BME280;41754;51.498;7.540;2023-05-01T07:26:17;100209.28;;;18.84;35.34
16190;BME280;41754;51.498;7.540;2023-05-01T07:28:45;100207.22;;;18.81;35.13
16190;BME280;41754;51.498;7.540;2023-05-01T07:31:13;100202.16;;;18.67;35.98
16190;BME280;41754;51.498;7.540;2023-05-01T07:33:41;100209.94;;;18.78;35.76
16190;BME280;41754;51.498;7.540;2023-05-01T07:36:12;100208.00;;;19.01;35.24
16190;BME280;41754;51.498;7.540;2023-05-01T07:38:40;100196.28;;;19.34;35.16
16190;BME280;41754;51.498;7.540;2023-05-01T07:41:08;100195.59;;;18.98;35.61
16190;BME280;41754;51.498;7.540;2023-05-01T07:43:36;100190.78;;;18.95;34.94
16190;BME280;41754;51.498;7.540;2023-05-01T07:46:04;100201.19;;;18.98;34.91
16190;BME280;41754;51.498;7.540;2023-05-01T07:48:32;100194.34;;;18.34;35.91
16190;BME280;41754;51.498;7.540;2023-05-01T07:51:04;100198.84;;;17.88;36.94
16190;BME280;41754;51.498;7.540;2023-05-01T07:53:34;100197.13;;;18.34;35.88
16190;BME280;41754;51.498;7.540;2023-05-01T07:56:05;100197.53;;;17.66;37.29
16190;BME280;41754;51.498;7.540;2023-05-01T07:58:35;100202.88;;;17.91;36.76
16190;BME280;41754;51.498;7.540;2023-05-01T08:01:04;100192.06;;;18.40;35.90
16190;BME280;41754;51.498;7.540;2023-05-01T08:03:33;100194.06;;;18.82;35.50
16190;BME280;41754;51.498;7.540;2023-05-01T08:06:02;100192.97;;;18.09;35.89
16190;BME280;41754;51.498;7.540;2023-05-01T08:08:30;100204.00;;;17.70;36.56
16190;BME280;41754;51.498;7.540;2023-05-01T08:10:59;100194.41;;;18.03;37.18
16190;BME280;41754;51.498;7.540;2023-05-01T08:13:28;100195.75;;;17.58;36.70
16190;BME280;41754;51.498;7.540;2023-05-01T08:15:59;100192.50;;;18.61;35.52
16190;BME280;41754;51.498;7.540;2023-05-01T08:18:28;100188.91;;;18.61;35.48
16190;BME280;41754;51.498;7.540;2023-05-01T08:20:56;100194.47;;;18.42;35.91
16190;BME280;41754;51.498;7.540;2023-05-01T08:23:24;100195.28;;;19.04;35.42
16190;BME280;41754;51.498;7.540;2023-05-01T08:25:52;100191.53;;;19.61;34.87
16190;BME280;41754;51.498;7.540;2023-05-01T08:28:22;100192.06;;;19.70;34.34
16190;BME280;41754;51.498;7.540;2023-05-01T08:30:50;100185.22;;;19.18;35.45
16190;BME280;41754;51.498;7.540;2023-05-01T08:33:18;100179.22;;;19.66;33.36
16190;BME280;41754;51.498;7.540;2023-05-01T08:35:47;100176.94;;;19.03;34.87
16190;BME280;41754;51.498;7.540;2023-05-01T08:38:15;100180.84;;;19.67;33.12
16190;BME280;41754;51.498;7.540;2023-05-01T08:40:51;100180.78;;;19.86;32.76
16190;BME280;41754;51.498;7.540;2023-05-01T08:43:21;100183.00;;;19.77;32.99
16190;BME280;41754;51.498;7.540;2023-05-01T08:45:50;100180.97;;;19.74;33.78
16190;BME280;41754;51.498;7.540;2023-05-01T08:48:20;100188.47;;;20.56;32.10
16190;BME280;41754;51.498;7.540;2023-05-01T08:50:50;100185.47;;;20.08;32.40
16190;BME280;41754;51.498;7.540;2023-05-01T08:53:21;100178.88;;;19.44;33.18
16190;BME280;41754;51.498;7.540;2023-05-01T08:55:51;100188.16;;;20.01;32.54
16190;BME280;41754;51.498;7.540;2023-05-01T08:58:21;100179.56;;;20.13;31.50
16190;BME280;41754;51.498;7.540;2023-05-01T09:00:52;100179.22;;;19.66;32.94
16190;BME280;41754;51.498;7.540;2023-05-01T09:03:22;100179.97;;;19.13;32.87
16190;BME280;41754;51.498;7.540;2023-05-01T09:05:52;100185.22;;;19.41;32.71
16190;BME280;41754;51.498;7.540;2023-05-01T09:08:20;100174.19;;;20.01;33.36
16190;BME280;41754;51.498;7.540;2023-05-01T09:10:48;100169.06;;;19.80;32.50
16190;BME280;41754;51.498;7.540;2023-05-01T09:13:18;100167.28;;;21.29;30.59
16190;BME280;41754;51.498;7.540;2023-05-01T09:15:47;100177.41;;;19.77;32.12
16190;BME280;41754;51.498;7.540;2023-05-01T09:18:15;100171.22;;;20.47;31.68
16190;BME280;41754;51.498;7.540;2023-05-01T09:20:43;100165.03;;;21.01;30.53
16190;BME280;41754;51.498;7.540;2023-05-01T09:23:11;100162.00;;;20.80;30.74
16190;BME280;41754;51.498;7.540;2023-05-01T09:25:39;100165.19;;;19.59;32.48
16190;BME280;41754;51.498;7.540;2023-05-01T09:28:08;100154.78;;;20.76;30.80
16190;BME280;41754;51.498;7.540;2023-05-01T09:30:37;100158.72;;;21.12;30.05
16190;BME280;41754;51.498;7.540;2023-05-01T09:33:07;100156.19;;;21.99;30.76
16190;BME280;41754;51.498;7.540;2023-05-01T09:35:52;100156.13;;;21.84;29.48
16190;BME280;41754;51.498;7.540;2023-05-01T09:38:22;100153.72;;;21.90;30.27
16190;BME280;41754;51.498;7.540;2023-05-01T09:40:52;100147.66;;;22.61;30.41
16190;BME280;41754;51.498;7.540;2023-05-01T09:43:25;100150.06;;;22.66;29.20
16190;BME280;41754;51.498;7.540;2023-05-01T09:46:01;100156.19;;;21.37;30.21
16190;BME280;41754;51.498;7.540;2023-05-01T09:48:32;100145.97;;;22.31;29.79
16190;BME280;41754;51.498;7.540;2023-05-01T09:51:19;100150.88;;;22.56;28.91
16190;BME280;41754;51.498;7.540;2023-05-01T09:53:47;100139.56;;;22.31;28.68
16190;BME280;41754;51.498;7.540;2023-05-01T09:56:16;100148.44;;;22.43;29.63
16190;BME280;41754;51.498;7.540;2023-05-01T09:58:44;100144.59;;;23.62;28.42
16190;BME280;41754;51.498;7.540;2023-05-01T10:01:13;100140.53;;;22.70;30.33
16190;BME280;41754;51.498;7.540;2023-05-01T10:03:44;100142.94;;;22.86;30.85
16190;BME280;41754;51.498;7.540;2023-05-01T10:06:25;100137.13;;;22.29;29.02
16190;BME280;41754;51.498;7.540;2023-05-01T10:08:55;100140.97;;;23.04;30.35
16190;BME280;41754;51.498;7.540;2023-05-01T10:11:23;100139.00;;;23.30;29.82
16190;BME280;41754;51.498;7.540;2023-05-01T10:14:04;100129.47;;;25.13;28.63
16190;BME280;41754;51.498;7.540;2023-05-01T10:16:37;100135.53;;;24.38;26.81
16190;BME280;41754;51.498;7.540;2023-05-01T10:19:07;100136.94;;;22.88;27.75
16190;BME280;41754;51.498;7.540;2023-05-01T10:21:35;100147.78;;;23.03;28.67
16190;BME280;41754;51.498;7.540;2023-05-01T10:24:03;100131.78;;;23.40;26.59
16190;BME280;41754;51.498;7.540;2023-05-01T10:26:33;100136.56;;;22.96;26.53
16190;BME280;41754;51.498;7.540;2023-05-01T10:29:02;100134.81;;;22.53;26.11
16190;BME280;41754;51.498;7.540;2023-05-01T10:31:30;100130.53;;;23.01;26.12
16190;BME280;41754;51.498;7.540;2023-05-01T10:33:59;100126.81;;;22.55;26.75
16190;BME280;41754;51.498;7.540;2023-05-01T10:36:40;100129.53;;;22.26;26.90
16190;BME280;41754;51.498;7.540;2023-05-01T10:39:31;100124.72;;;22.20;27.62
16190;BME280;41754;51.498;7.540;2023-05-01T10:42:00;100126.75;;;22.33;28.19
16190;BME280;41754;51.498;7.540;2023-05-01T10:44:29;100130.28;;;22.16;27.70
16190;BME280;41754;51.498;7.540;2023-05-01T10:46:57;100125.41;;;22.02;28.06
16190;BME280;41754;51.498;7.540;2023-05-01T10:50:02;100133.88;;;22.16;27.78
16190;BME280;41754;51.498;7.540;2023-05-01T10:55:44;100133.16;;;21.61;29.02
16190;BME280;41754;51.498;7.540;2023-05-01T10:58:13;100120.56;;;21.96;28.02
16190;BME280;41754;51.498;7.540;2023-05-01T11:00:41;100120.34;;;21.60;27.70
16190;BME280;41754;51.498;7.540;2023-05-01T11:03:34;100124.97;;;22.00;27.50
16190;BME280;41754;51.498;7.540;2023-05-01T11:06:06;100123.59;;;22.53;27.48
16190;BME280;41754;51.498;7.540;2023-05-01T11:08:37;100130.00;;;22.46;27.87
16190;BME280;41754;51.498;7.540;2023-05-01T11:14:10;100119.69;;;22.75;26.83
16190;BME280;41754;51.498;7.540;2023-05-01T11:16:43;100118.16;;;23.45;25.93
16190;BME280;41754;51.498;7.540;2023-05-01T11:19:44;100118.91;;;23.28;26.64
16190;BME280;41754;51.498;7.540;2023-05-01T11:22:14;100120.28;;;24.36;25.51
16190;BME280;41754;51.498;7.540;2023-05-01T11:24:44;100120.50;;;23.64;25.97
16190;BME280;41754;51.498;7.540;2023-05-01T11:27:14;100119.63;;;23.89;26.33
16190;BME280;41754;51.498;7.540;2023-05-01T11:29:45;100118.09;;;23.74;25.57
16190;BME280;41754;51.498;7.540;2023-05-01T11:32:21;100116.91;;;23.32;28.25
16190;BME280;41754;51.498;7.540;2023-05-01T11:34:51;100110.47;;;22.89;27.13
16190;BME280;41754;51.498;7.540;2023-05-01T11:37:19;100116.50;;;22.80;26.48
16190;BME280;41754;51.498;7.540;2023-05-01T11:39:50;100117.31;;;23.41;26.46
16190;BME280;41754;51.498;7.540;2023-05-01T11:42:19;100110.09;;;23.26;27.97
16190;BME280;41754;51.498;7.540;2023-05-01T11:45:05;100110.09;;;23.26;26.50
16190;BME280;41754;51.498;7.540;2023-05-01T11:47:34;100112.34;;;22.31;26.93
16190;BME280;41754;51.498;7.540;2023-05-01T11:50:02;100106.91;;;22.95;27.16
16190;BME280;41754;51.498;7.540;2023-05-01T11:52:40;100111.16;;;24.10;23.73
16190;BME280;41754;51.498;7.540;2023-05-01T11:55:10;100109.38;;;25.11;23.17
16190;BME280;41754;51.498;7.540;2023-05-01T11:57:45;100104.28;;;24.26;23.46
16190;BME280;41754;51.498;7.540;2023-05-01T12:00:14;100100.38;;;26.09;21.98
16190;BME280;41754;51.498;7.540;2023-05-01T12:02:57;100101.28;;;27.64;20.78
16190;BME280;41754;51.498;7.540;2023-05-01T12:05:27;100097.16;;;25.73;22.33
16190;BME280;41754;51.498;7.540;2023-05-01T12:08:06;100102.81;;;23.75;24.68
16190;BME280;41754;51.498;7.540;2023-05-01T12:10:38;100097.91;;;24.14;23.59
16190;BME280;41754;51.498;7.540;2023-05-01T12:13:07;100099.56;;;23.94;24.11
16190;BME280;41754;51.498;7.540;2023-05-01T12:15:38;100098.59;;;24.36;24.02
16190;BME280;41754;51.498;7.540;2023-05-01T12:18:06;100095.03;;;24.29;23.59
16190;BME280;41754;51.498;7.540;2023-05-01T12:20:36;100096.09;;;23.37;25.15
16190;BME280;41754;51.498;7.540;2023-05-01T12:23:06;100091.66;;;22.89;25.77
16190;BME280;41754;51.498;7.540;2023-05-01T12:25:38;100090.47;;;23.12;25.37
16190;BME280;41754;51.498;7.540;2023-05-01T12:28:08;100094.84;;;23.34;25.30
16190;BME280;41754;51.498;7.540;2023-05-01T12:30:37;100094.06;;;23.55;24.91
16190;BME280;41754;51.498;7.540;2023-05-01T12:33:10;100092.88;;;23.31;24.93
16190;BME280;41754;51.498;7.540;2023-05-01T12:35:38;100081.22;;;23.11;25.17
16190;BME280;41754;51.498;7.540;2023-05-01T12:38:12;100089.25;;;23.34;25.04
16190;BME280;41754;51.498;7.540;2023-05-01T12:40:50;100082.69;;;23.90;24.84
16190;BME280;41754;51.498;7.540;2023-05-01T12:43:20;100083.50;;;24.02;24.99
16190;BME280;41754;51.498;7.540;2023-05-01T12:45:52;100080.38;;;23.71;25.26
16190;BME280;41754;51.498;7.540;2023-05-01T12:48:20;100085.06;;;25.35;24.05
16190;BME280;41754;51.498;7.540;2023-05-01T12:50:48;100078.06;;;27.06;22.20
16190;BME280;41754;51.498;7.540;2023-05-01T12:53:21;100080.34;;;25.21;24.66
16190;BME280;41754;51.498;7.540;2023-05-01T12:55:55;100074.03;;;27.51;20.81
16190;BME280;41754;51.498;7.540;2023-05-01T12:58:32;100062.72;;;31.45;19.92
16190;BME280;41754;51.498;7.540;2023-05-01T13:01:01;100059.00;;;31.49;17.88
16190;BME280;41754;51.498;7.540;2023-05-01T13:03:31;100066.09;;;31.19;16.78
16190;BME280;41754;51.498;7.540;2023-05-01T13:06:01;100060.16;;;26.90;19.88
16190;BME280;41754;51.498;7.540;2023-05-01T13:08:30;100061.69;;;25.42;21.97
16190;BME280;41754;51.498;7.540;2023-05-01T13:11:02;100058.03;;;24.34;22.62
16190;BME280;41754;51.498;7.540;2023-05-01T13:13:35;100059.59;;;23.37;25.74
16190;BME280;41754;51.498;7.540;2023-05-01T13:16:06;100053.00;;;23.93;22.88
16190;BME280;41754;51.498;7.540;2023-05-01T13:18:43;100056.00;;;24.41;24.48
16190;BME280;41754;51.498;7.540;2023-05-01T13:21:14;100061.47;;;25.15;22.63
16190;BME280;41754;51.498;7.540;2023-05-01T13:23:51;100053.63;;;24.95;23.96